sensor_id;sensor_type;location;lat;lon;timestamp;P1;durP1;ratioP1;P2;durP2;ratioP2
57655;SDS011;43482;53.334;6.744;2022-07-23T00:00:07;1.33;;;0.88;;
57655;SDS011;43482;53.334;6.744;2022-07-23T00:02:33;1.15;;;0.68;;
57655;SDS011;43482;53.334;6.744;2022-07-23T00:04:58;2.17;;;0.75;;
57655;SDS011;43482;53.334;6.744;2022-07-23T00:07:24;1.38;;;0.57;;
57655;SDS011;43482;53.334;6.744;2022-07-23T00:09:49;1.85;;;0.57;;
57655;SDS011;43482;53.334;6.744;2022-07-23T00:12:15;0.88;;;0.60;;
57655;SDS011;43482;53.334;6.744;2022-07-23T00:14:40;2.03;;;0.82;;
57655;SDS011;43482;53.334;6.744;2022-07-23T00:17:06;1.85;;;0.57;;
57655;SDS011;43482;53.334;6.744;2022-07-23T00:19:31;2.60;;;0.55;;
57655;SDS011;43482;53.334;6.744;2022-07-23T00:21:56;0.60;;;0.30;;
57655;SDS011;43482;53.334;6.744;2022-07-23T00:24:22;2.33;;;0.57;;
57655;SDS011;43482;53.334;6.744;2022-07-23T00:26:47;1.00;;;0.55;;
57655;SDS011;43482;53.334;6.744;2022-07-23T00:29:12;1.10;;;0.35;;
57655;SDS011;43482;53.334;6.744;2022-07-23T00:31:38;1.65;;;0.73;;
57655;SDS011;43482;53.334;6.744;2022-07-23T00:34:03;1.48;;;0.93;;
57655;SDS011;43482;53.334;6.744;2022-07-23T00:36:29;2.08;;;0.93;;
57655;SDS011;43482;53.334;6.744;2022-07-23T00:38:56;3.10;;;0.70;;
57655;SDS011;43482;53.334;6.744;2022-07-23T00:41:21;4.28;;;0.90;;
57655;SDS011;43482;53.334;6.744;2022-07-23T00:43:46;2.85;;;0.90;;
57655;SDS011;43482;53.334;6.744;2022-07-23T00:46:12;1.40;;;0.77;;
57655;SDS011;43482;53.334;6.744;2022-07-23T00:48:37;2.35;;;1.35;;
57655;SDS011;43482;53.334;6.744;2022-07-23T00:51:02;5.53;;;1.30;;
57655;SDS011;43482;53.334;6.744;2022-07-23T00:53:28;1.88;;;0.93;;
57655;SDS011;43482;53.334;6.744;2022-07-23T00:55:54;1.23;;;0.73;;
57655;SDS011;43482;53.334;6.744;2022-07-23T00:58:19;5.25;;;1.08;;
57655;SDS011;43482;53.334;6.744;2022-07-23T01:00:45;1.70;;;1.20;;
57655;SDS011;43482;53.334;6.744;2022-07-23T01:03:10;1.08;;;0.80;;
57655;SDS011;43482;53.334;6.744;2022-07-23T01:05:36;2.80;;;1.13;;
57655;SDS011;43482;53.334;6.744;2022-07-23T01:08:02;1.33;;;0.95;;
57655;SDS011;43482;53.334;6.744;2022-07-23T01:10:27;2.42;;;1.30;;
57655;SDS011;43482;53.334;6.744;2022-07-23T01:13:03;4.43;;;1.35;;
57655;SDS011;43482;53.334;6.744;2022-07-23T01:15:31;1.67;;;1.10;;
57655;SDS011;43482;53.334;6.744;2022-07-23T01:17:57;2.40;;;1.25;;
57655;SDS011;43482;53.334;6.744;2022-07-23T01:20:23;2.03;;;1.13;;
57655;SDS011;43482;53.334;6.744;2022-07-23T01:22:48;2.30;;;1.50;;
57655;SDS011;43482;53.334;6.744;2022-07-23T01:25:14;3.05;;;1.20;;
57655;SDS011;43482;53.334;6.744;2022-07-23T01:27:40;2.97;;;1.63;;
57655;SDS011;43482;53.334;6.744;2022-07-23T01:30:06;1.88;;;1.00;;
57655;SDS011;43482;53.334;6.744;2022-07-23T01:32:32;6.55;;;1.70;;
57655;SDS011;43482;53.334;6.744;2022-07-23T01:34:57;4.50;;;2.00;;
57655;SDS011;43482;53.334;6.744;2022-07-23T01:37:22;1.23;;;1.10;;
57655;SDS011;43482;53.334;6.744;2022-07-23T01:39:48;2.15;;;0.90;;
57655;SDS011;43482;53.334;6.744;2022-07-23T01:42:13;1.55;;;1.02;;
57655;SDS011;43482;53.334;6.744;2022-07-23T01:44:38;3.83;;;1.38;;
57655;SDS011;43482;53.334;6.744;2022-07-23T01:47:04;3.28;;;1.80;;
57655;SDS011;43482;53.334;6.744;2022-07-23T01:49:29;1.33;;;0.90;;
57655;SDS011;43482;53.334;6.744;2022-07-23T01:51:55;4.13;;;1.42;;
57655;SDS011;43482;53.334;6.744;2022-07-23T01:54:30;4.72;;;1.55;;
57655;SDS011;43482;53.334;6.744;2022-07-23T01:56:58;2.95;;;1.25;;
57655;SDS011;43482;53.334;6.744;2022-07-23T01:59:25;1.85;;;1.38;;
57655;SDS011;43482;53.334;6.744;2022-07-23T02:01:51;2.00;;;0.77;;
57655;SDS011;43482;53.334;6.744;2022-07-23T02:04:17;1.80;;;1.38;;
57655;SDS011;43482;53.334;6.744;2022-07-23T02:06:43;2.95;;;1.88;;
57655;SDS011;43482;53.334;6.744;2022-07-23T02:09:09;1.15;;;0.98;;
57655;SDS011;43482;53.334;6.744;2022-07-23T02:11:34;1.58;;;0.93;;
57655;SDS011;43482;53.334;6.744;2022-07-23T02:14:00;1.05;;;0.80;;
57655;SDS011;43482;53.334;6.744;2022-07-23T02:16:25;1.58;;;1.10;;
57655;SDS011;43482;53.334;6.744;2022-07-23T02:18:50;1.58;;;0.98;;
57655;SDS011;43482;53.334;6.744;2022-07-23T02:21:16;4.18;;;1.55;;
57655;SDS011;43482;53.334;6.744;2022-07-23T02:23:41;1.48;;;1.08;;
57655;SDS011;43482;53.334;6.744;2022-07-23T02:26:06;1.30;;;1.00;;
57655;SDS011;43482;53.334;6.744;2022-07-23T02:28:32;1.50;;;0.77;;
57655;SDS011;43482;53.334;6.744;2022-07-23T02:30:57;1.77;;;1.13;;
57655;SDS011;43482;53.334;6.744;2022-07-23T02:33:23;2.47;;;0.95;;
57655;SDS011;43482;53.334;6.744;2022-07-23T02:35:48;1.67;;;0.98;;
57655;SDS011;43482;53.334;6.744;2022-07-23T02:38:14;1.85;;;0.98;;
57655;SDS011;43482;53.334;6.744;2022-07-23T02:40:39;2.08;;;1.17;;
57655;SDS011;43482;53.334;6.744;2022-07-23T02:43:04;1.73;;;1.35;;
57655;SDS011;43482;53.334;6.744;2022-07-23T02:45:30;2.45;;;0.98;;
57655;SDS011;43482;53.334;6.744;2022-07-23T02:47:55;1.40;;;1.17;;
57655;SDS011;43482;53.334;6.744;2022-07-23T02:50:20;4.18;;;1.58;;
57655;SDS011;43482;53.334;6.744;2022-07-23T02:52:46;2.08;;;1.17;;
57655;SDS011;43482;53.334;6.744;2022-07-23T02:55:11;1.38;;;1.05;;
57655;SDS011;43482;53.334;6.744;2022-07-23T02:57:37;2.17;;;0.85;;
57655;SDS011;43482;53.334;6.744;2022-07-23T03:00:03;1.83;;;1.58;;
57655;SDS011;43482;53.334;6.744;2022-07-23T03:02:30;1.60;;;1.02;;
57655;SDS011;43482;53.334;6.744;2022-07-23T03:04:56;2.45;;;1.42;;
57655;SDS011;43482;53.334;6.744;2022-07-23T03:07:21;1.95;;;1.40;;
57655;SDS011;43482;53.334;6.744;2022-07-23T03:09:47;2.13;;;1.23;;
57655;SDS011;43482;53.334;6.744;2022-07-23T03:12:12;1.85;;;1.17;;
57655;SDS011;43482;53.334;6.744;2022-07-23T03:14:38;1.55;;;1.13;;
57655;SDS011;43482;53.334;6.744;2022-07-23T03:17:03;1.80;;;1.00;;
57655;SDS011;43482;53.334;6.744;2022-07-23T03:19:29;1.58;;;1.00;;
57655;SDS011;43482;53.334;6.744;2022-07-23T03:21:54;2.13;;;1.30;;
57655;SDS011;43482;53.334;6.744;2022-07-23T03:24:19;0.68;;;0.50;;
57655;SDS011;43482;53.334;6.744;2022-07-23T03:26:45;3.42;;;1.15;;
57655;SDS011;43482;53.334;6.744;2022-07-23T03:29:10;5.65;;;0.90;;
57655;SDS011;43482;53.334;6.744;2022-07-23T03:31:36;2.13;;;1.15;;
57655;SDS011;43482;53.334;6.744;2022-07-23T03:34:01;2.35;;;1.08;;
57655;SDS011;43482;53.334;6.744;2022-07-23T03:36:27;1.00;;;0.90;;
57655;SDS011;43482;53.334;6.744;2022-07-23T03:38:53;2.13;;;1.70;;
57655;SDS011;43482;53.334;6.744;2022-07-23T03:41:19;1.50;;;0.90;;
57655;SDS011;43482;53.334;6.744;2022-07-23T03:43:45;2.00;;;1.00;;
57655;SDS011;43482;53.334;6.744;2022-07-23T03:46:11;3.47;;;1.13;;
57655;SDS011;43482;53.334;6.744;2022-07-23T03:48:37;1.98;;;0.75;;
57655;SDS011;43482;53.334;6.744;2022-07-23T03:51:02;1.85;;;0.80;;
57655;SDS011;43482;53.334;6.744;2022-07-23T03:53:28;3.28;;;1.20;;
57655;SDS011;43482;53.334;6.744;2022-07-23T03:55:54;1.58;;;1.00;;
57655;SDS011;43482;53.334;6.744;2022-07-23T03:58:19;1.63;;;0.95;;
57655;SDS011;43482;53.334;6.744;2022-07-23T04:00:44;1.17;;;0.80;;
57655;SDS011;43482;53.334;6.744;2022-07-23T04:03:10;5.43;;;1.30;;
57655;SDS011;43482;53.334;6.744;2022-07-23T04:05:35;1.85;;;0.95;;
57655;SDS011;43482;53.334;6.744;2022-07-23T04:08:01;2.55;;;1.40;;
57655;SDS011;43482;53.334;6.744;2022-07-23T04:10:26;1.48;;;1.20;;
57655;SDS011;43482;53.334;6.744;2022-07-23T04:12:51;1.30;;;0.82;;
57655;SDS011;43482;53.334;6.744;2022-07-23T04:15:17;1.42;;;0.95;;
57655;SDS011;43482;53.334;6.744;2022-07-23T04:17:42;1.42;;;0.90;;
57655;SDS011;43482;53.334;6.744;2022-07-23T04:20:09;1.45;;;1.02;;
57655;SDS011;43482;53.334;6.744;2022-07-23T04:22:35;1.58;;;1.08;;
57655;SDS011;43482;53.334;6.744;2022-07-23T04:25:01;1.80;;;1.33;;
57655;SDS011;43482;53.334;6.744;2022-07-23T04:27:27;2.17;;;1.35;;
57655;SDS011;43482;53.334;6.744;2022-07-23T04:29:52;1.50;;;1.23;;
57655;SDS011;43482;53.334;6.744;2022-07-23T04:32:17;4.18;;;1.00;;
57655;SDS011;43482;53.334;6.744;2022-07-23T04:34:43;3.00;;;1.10;;
57655;SDS011;43482;53.334;6.744;2022-07-23T04:37:08;0.80;;;0.60;;
57655;SDS011;43482;53.334;6.744;2022-07-23T04:39:33;1.40;;;0.77;;
57655;SDS011;43482;53.334;6.744;2022-07-23T04:41:59;1.77;;;0.80;;
57655;SDS011;43482;53.334;6.744;2022-07-23T04:44:24;0.82;;;0.60;;
57655;SDS011;43482;53.334;6.744;2022-07-23T04:46:49;1.17;;;1.00;;
57655;SDS011;43482;53.334;6.744;2022-07-23T04:49:15;1.35;;;0.98;;
57655;SDS011;43482;53.334;6.744;2022-07-23T04:51:40;6.88;;;1.20;;
57655;SDS011;43482;53.334;6.744;2022-07-23T04:54:05;1.52;;;1.00;;
57655;SDS011;43482;53.334;6.744;2022-07-23T04:56:31;2.42;;;1.50;;
57655;SDS011;43482;53.334;6.744;2022-07-23T04:58:56;3.92;;;0.98;;
57655;SDS011;43482;53.334;6.744;2022-07-23T05:01:22;1.83;;;1.15;;
57655;SDS011;43482;53.334;6.744;2022-07-23T05:03:47;3.90;;;2.75;;
57655;SDS011;43482;53.334;6.744;2022-07-23T05:06:13;2.50;;;1.40;;
57655;SDS011;43482;53.334;6.744;2022-07-23T05:08:39;1.52;;;1.08;;
57655;SDS011;43482;53.334;6.744;2022-07-23T05:11:04;2.50;;;1.20;;
57655;SDS011;43482;53.334;6.744;2022-07-23T05:13:30;1.70;;;1.13;;
57655;SDS011;43482;53.334;6.744;2022-07-23T05:15:55;1.63;;;0.98;;
57655;SDS011;43482;53.334;6.744;2022-07-23T05:18:21;1.98;;;0.90;;
57655;SDS011;43482;53.334;6.744;2022-07-23T05:20:47;1.50;;;0.85;;
57655;SDS011;43482;53.334;6.744;2022-07-23T05:23:12;1.98;;;1.17;;
57655;SDS011;43482;53.334;6.744;2022-07-23T05:25:37;1.98;;;1.15;;
57655;SDS011;43482;53.334;6.744;2022-07-23T05:28:03;1.15;;;0.70;;
57655;SDS011;43482;53.334;6.744;2022-07-23T05:30:28;2.17;;;1.48;;
57655;SDS011;43482;53.334;6.744;2022-07-23T05:32:54;2.17;;;1.42;;
57655;SDS011;43482;53.334;6.744;2022-07-23T05:35:19;1.30;;;0.90;;
57655;SDS011;43482;53.334;6.744;2022-07-23T05:37:45;1.63;;;0.90;;
57655;SDS011;43482;53.334;6.744;2022-07-23T05:40:10;1.70;;;1.08;;
57655;SDS011;43482;53.334;6.744;2022-07-23T05:42:37;1.00;;;0.70;;
57655;SDS011;43482;53.334;6.744;2022-07-23T05:45:03;1.52;;;0.98;;
57655;SDS011;43482;53.334;6.744;2022-07-23T05:47:38;2.30;;;1.00;;
57655;SDS011;43482;53.334;6.744;2022-07-23T05:50:05;2.15;;;0.88;;
57655;SDS011;43482;53.334;6.744;2022-07-23T05:52:31;1.42;;;0.77;;
57655;SDS011;43482;53.334;6.744;2022-07-23T05:54:56;2.50;;;0.70;;
57655;SDS011;43482;53.334;6.744;2022-07-23T05:57:21;1.38;;;1.05;;
57655;SDS011;43482;53.334;6.744;2022-07-23T05:59:47;2.55;;;1.17;;
57655;SDS011;43482;53.334;6.744;2022-07-23T06:02:12;2.40;;;1.00;;
57655;SDS011;43482;53.334;6.744;2022-07-23T06:04:37;0.98;;;0.80;;
57655;SDS011;43482;53.334;6.744;2022-07-23T06:07:03;1.27;;;1.05;;
57655;SDS011;43482;53.334;6.744;2022-07-23T06:09:28;1.10;;;0.50;;
57655;SDS011;43482;53.334;6.744;2022-07-23T06:11:53;2.53;;;1.38;;
57655;SDS011;43482;53.334;6.744;2022-07-23T06:14:19;1.15;;;0.60;;
57655;SDS011;43482;53.334;6.744;2022-07-23T06:16:44;1.40;;;0.75;;
57655;SDS011;43482;53.334;6.744;2022-07-23T06:19:09;1.33;;;0.75;;
57655;SDS011;43482;53.334;6.744;2022-07-23T06:21:35;0.77;;;0.52;;
57655;SDS011;43482;53.334;6.744;2022-07-23T06:24:00;2.53;;;0.40;;
57655;SDS011;43482;53.334;6.744;2022-07-23T06:26:26;3.08;;;0.43;;
57655;SDS011;43482;53.334;6.744;2022-07-23T06:28:51;1.02;;;0.63;;
57655;SDS011;43482;53.334;6.744;2022-07-23T06:31:17;0.60;;;0.47;;
57655;SDS011;43482;53.334;6.744;2022-07-23T06:33:42;1.20;;;0.63;;
57655;SDS011;43482;53.334;6.744;2022-07-23T06:36:07;0.70;;;0.52;;
57655;SDS011;43482;53.334;6.744;2022-07-23T06:38:33;0.88;;;0.60;;
57655;SDS011;43482;53.334;6.744;2022-07-23T06:40:58;0.73;;;0.40;;
57655;SDS011;43482;53.334;6.744;2022-07-23T06:43:24;0.73;;;0.32;;
57655;SDS011;43482;53.334;6.744;2022-07-23T06:45:49;1.02;;;0.30;;
57655;SDS011;43482;53.334;6.744;2022-07-23T06:48:14;0.75;;;0.45;;
57655;SDS011;43482;53.334;6.744;2022-07-23T06:50:40;0.88;;;0.50;;
57655;SDS011;43482;53.334;6.744;2022-07-23T06:53:05;1.00;;;0.70;;
57655;SDS011;43482;53.334;6.744;2022-07-23T06:55:30;0.40;;;0.28;;
57655;SDS011;43482;53.334;6.744;2022-07-23T06:57:56;0.63;;;0.40;;
57655;SDS011;43482;53.334;6.744;2022-07-23T07:00:21;0.85;;;0.55;;
57655;SDS011;43482;53.334;6.744;2022-07-23T07:02:47;0.65;;;0.50;;
57655;SDS011;43482;53.334;6.744;2022-07-23T07:05:12;0.82;;;0.40;;
57655;SDS011;43482;53.334;6.744;2022-07-23T07:07:37;3.00;;;0.77;;
57655;SDS011;43482;53.334;6.744;2022-07-23T07:10:03;0.47;;;0.30;;
57655;SDS011;43482;53.334;6.744;2022-07-23T07:12:29;0.77;;;0.73;;
57655;SDS011;43482;53.334;6.744;2022-07-23T07:14:54;1.20;;;0.60;;
57655;SDS011;43482;53.334;6.744;2022-07-23T07:17:19;1.17;;;0.70;;
57655;SDS011;43482;53.334;6.744;2022-07-23T07:19:45;1.88;;;0.60;;
57655;SDS011;43482;53.334;6.744;2022-07-23T07:22:10;0.57;;;0.40;;
57655;SDS011;43482;53.334;6.744;2022-07-23T07:24:35;0.93;;;0.32;;
57655;SDS011;43482;53.334;6.744;2022-07-23T07:27:01;0.25;;;0.15;;
57655;SDS011;43482;53.334;6.744;2022-07-23T07:29:26;0.35;;;0.30;;
57655;SDS011;43482;53.334;6.744;2022-07-23T07:31:53;0.60;;;0.30;;
57655;SDS011;43482;53.334;6.744;2022-07-23T07:34:18;0.32;;;0.15;;
57655;SDS011;43482;53.334;6.744;2022-07-23T07:36:43;0.50;;;0.30;;
57655;SDS011;43482;53.334;6.744;2022-07-23T07:39:09;0.30;;;0.28;;
57655;SDS011;43482;53.334;6.744;2022-07-23T07:41:35;0.28;;;0.20;;
57655;SDS011;43482;53.334;6.744;2022-07-23T07:44:00;2.08;;;0.20;;
57655;SDS011;43482;53.334;6.744;2022-07-23T07:46:26;0.63;;;0.30;;
57655;SDS011;43482;53.334;6.744;2022-07-23T07:48:52;0.13;;;0.10;;
57655;SDS011;43482;53.334;6.744;2022-07-23T07:51:18;3.55;;;0.40;;
57655;SDS011;43482;53.334;6.744;2022-07-23T07:53:43;0.25;;;0.13;;
57655;SDS011;43482;53.334;6.744;2022-07-23T07:56:09;0.50;;;0.20;;
57655;SDS011;43482;53.334;6.744;2022-07-23T07:58:34;0.15;;;0.08;;
57655;SDS011;43482;53.334;6.744;2022-07-23T08:01:00;2.45;;;0.30;;
57655;SDS011;43482;53.334;6.744;2022-07-23T08:03:25;1.50;;;0.20;;
57655;SDS011;43482;53.334;6.744;2022-07-23T08:05:51;0.45;;;0.20;;
57655;SDS011;43482;53.334;6.744;2022-07-23T08:08:16;0.30;;;0.10;;
57655;SDS011;43482;53.334;6.744;2022-07-23T08:10:42;0.98;;;0.57;;
57655;SDS011;43482;53.334;6.744;2022-07-23T08:13:11;0.30;;;0.20;;
57655;SDS011;43482;53.334;6.744;2022-07-23T08:15:38;0.30;;;0.20;;
57655;SDS011;43482;53.334;6.744;2022-07-23T08:18:03;1.20;;;0.47;;
57655;SDS011;43482;53.334;6.744;2022-07-23T08:20:29;1.10;;;0.10;;
57655;SDS011;43482;53.334;6.744;2022-07-23T08:23:04;0.30;;;0.20;;
57655;SDS011;43482;53.334;6.744;2022-07-23T08:25:32;0.10;;;0.10;;
57655;SDS011;43482;53.334;6.744;2022-07-23T08:28:04;0.20;;;0.17;;
57655;SDS011;43482;53.334;6.744;2022-07-23T08:30:34;0.52;;;0.52;;
57655;SDS011;43482;53.334;6.744;2022-07-23T08:33:02;0.20;;;0.10;;
57655;SDS011;43482;53.334;6.744;2022-07-23T08:35:36;0.28;;;0.20;;
57655;SDS011;43482;53.334;6.744;2022-07-23T08:38:04;0.40;;;0.20;;
57655;SDS011;43482;53.334;6.744;2022-07-23T08:40:35;0.68;;;0.17;;
57655;SDS011;43482;53.334;6.744;2022-07-23T08:43:07;1.65;;;0.50;;
57655;SDS011;43482;53.334;6.744;2022-07-23T08:45:37;3.05;;;2.80;;
57655;SDS011;43482;53.334;6.744;2022-07-23T08:48:05;0.50;;;0.30;;
57655;SDS011;43482;53.334;6.744;2022-07-23T08:50:32;0.40;;;0.15;;
57655;SDS011;43482;53.334;6.744;2022-07-23T08:53:01;0.43;;;0.20;;
57655;SDS011;43482;53.334;6.744;2022-07-23T08:55:27;0.15;;;0.10;;
57655;SDS011;43482;53.334;6.744;2022-07-23T08:57:53;1.15;;;0.60;;
57655;SDS011;43482;53.334;6.744;2022-07-23T09:00:19;0.40;;;0.20;;
57655;SDS011;43482;53.334;6.744;2022-07-23T09:02:46;0.10;;;0.10;;
57655;SDS011;43482;53.334;6.744;2022-07-23T09:05:12;0.30;;;0.10;;
57655;SDS011;43482;53.334;6.744;2022-07-23T09:08:02;0.40;;;0.20;;
57655;SDS011;43482;53.334;6.744;2022-07-23T09:10:29;0.57;;;0.20;;
57655;SDS011;43482;53.334;6.744;2022-07-23T09:12:54;0.45;;;0.28;;
57655;SDS011;43482;53.334;6.744;2022-07-23T09:15:20;0.20;;;0.10;;
57655;SDS011;43482;53.334;6.744;2022-07-23T09:17:45;1.38;;;0.25;;
57655;SDS011;43482;53.334;6.744;2022-07-23T09:20:15;1.63;;;0.10;;
57655;SDS011;43482;53.334;6.744;2022-07-23T09:25:17;0.20;;;0.10;;
57655;SDS011;43482;53.334;6.744;2022-07-23T09:27:48;2.67;;;0.30;;
57655;SDS011;43482;53.334;6.744;2022-07-23T09:30:14;0.50;;;0.20;;
57655;SDS011;43482;53.334;6.744;2022-07-23T09:32:39;0.70;;;0.20;;
57655;SDS011;43482;53.334;6.744;2022-07-23T09:35:06;1.95;;;0.20;;
57655;SDS011;43482;53.334;6.744;2022-07-23T09:37:31;0.17;;;0.00;;
57655;SDS011;43482;53.334;6.744;2022-07-23T09:40:04;0.98;;;0.20;;
57655;SDS011;43482;53.334;6.744;2022-07-23T09:42:31;0.45;;;0.13;;
57655;SDS011;43482;53.334;6.744;2022-07-23T09:44:57;0.20;;;0.17;;
57655;SDS011;43482;53.334;6.744;2022-07-23T09:47:24;0.10;;;0.10;;
57655;SDS011;43482;53.334;6.744;2022-07-23T09:52:28;0.85;;;0.30;;
57655;SDS011;43482;53.334;6.744;2022-07-23T09:55:03;1.85;;;0.30;;
57655;SDS011;43482;53.334;6.744;2022-07-23T09:57:31;0.43;;;0.10;;
57655;SDS011;43482;53.334;6.744;2022-07-23T09:59:58;0.20;;;0.15;;
57655;SDS011;43482;53.334;6.744;2022-07-23T10:02:25;0.50;;;0.17;;
57655;SDS011;43482;53.334;6.744;2022-07-23T10:04:54;0.32;;;0.13;;
57655;SDS011;43482;53.334;6.744;2022-07-23T10:07:22;0.10;;;0.10;;
57655;SDS011;43482;53.334;6.744;2022-07-23T10:09:51;0.35;;;0.30;;
57655;SDS011;43482;53.334;6.744;2022-07-23T10:12:18;0.20;;;0.10;;
57655;SDS011;43482;53.334;6.744;2022-07-23T10:14:53;0.00;;;0.00;;
57655;SDS011;43482;53.334;6.744;2022-07-23T10:17:19;0.68;;;0.10;;
57655;SDS011;43482;53.334;6.744;2022-07-23T10:19:44;0.52;;;0.20;;
57655;SDS011;43482;53.334;6.744;2022-07-23T10:22:11;0.38;;;0.28;;
57655;SDS011;43482;53.334;6.744;2022-07-23T10:30:09;2.13;;;0.30;;
57655;SDS011;43482;53.334;6.744;2022-07-23T10:38:11;1.10;;;0.20;;
57655;SDS011;43482;53.334;6.744;2022-07-23T10:40:52;0.60;;;0.20;;
57655;SDS011;43482;53.334;6.744;2022-07-23T10:43:28;0.10;;;0.10;;
57655;SDS011;43482;53.334;6.744;2022-07-23T10:45:54;0.75;;;0.38;;
57655;SDS011;43482;53.334;6.744;2022-07-23T10:48:24;1.95;;;0.52;;
57655;SDS011;43482;53.334;6.744;2022-07-23T10:51:10;0.43;;;0.20;;
57655;SDS011;43482;53.334;6.744;2022-07-23T10:59:21;1.10;;;0.40;;
57655;SDS011;43482;53.334;6.744;2022-07-23T11:01:46;3.05;;;0.50;;
57655;SDS011;43482;53.334;6.744;2022-07-23T11:04:12;0.47;;;0.35;;
57655;SDS011;43482;53.334;6.744;2022-07-23T11:09:28;1.88;;;0.20;;
57655;SDS011;43482;53.334;6.744;2022-07-23T11:17:22;0.90;;;0.25;;
57655;SDS011;43482;53.334;6.744;2022-07-23T11:22:34;1.90;;;0.20;;
57655;SDS011;43482;53.334;6.744;2022-07-23T11:25:00;0.40;;;0.20;;
57655;SDS011;43482;53.334;6.744;2022-07-23T11:27:41;0.65;;;0.20;;
57655;SDS011;43482;53.334;6.744;2022-07-23T11:30:36;5.88;;;1.20;;
57655;SDS011;43482;53.334;6.744;2022-07-23T11:35:30;0.85;;;0.30;;
57655;SDS011;43482;53.334;6.744;2022-07-23T11:38:06;3.42;;;0.55;;
57655;SDS011;43482;53.334;6.744;2022-07-23T11:40:37;0.60;;;0.30;;
57655;SDS011;43482;53.334;6.744;2022-07-23T11:43:04;0.22;;;0.10;;
57655;SDS011;43482;53.334;6.744;2022-07-23T11:48:06;3.22;;;0.75;;
57655;SDS011;43482;53.334;6.744;2022-07-23T11:50:33;0.20;;;0.20;;
57655;SDS011;43482;53.334;6.744;2022-07-23T11:52:59;0.47;;;0.30;;
57655;SDS011;43482;53.334;6.744;2022-07-23T11:55:24;1.25;;;0.40;;
57655;SDS011;43482;53.334;6.744;2022-07-23T11:57:51;2.05;;;0.55;;
57655;SDS011;43482;53.334;6.744;2022-07-23T12:00:19;0.60;;;0.28;;
57655;SDS011;43482;53.334;6.744;2022-07-23T12:02:50;0.40;;;0.20;;
57655;SDS011;43482;53.334;6.744;2022-07-23T12:07:47;0.10;;;0.10;;
57655;SDS011;43482;53.334;6.744;2022-07-23T12:10:21;0.20;;;0.15;;
57655;SDS011;43482;53.334;6.744;2022-07-23T12:12:55;0.28;;;0.28;;
57655;SDS011;43482;53.334;6.744;2022-07-23T12:15:23;3.33;;;0.88;;
57655;SDS011;43482;53.334;6.744;2022-07-23T12:17:51;2.67;;;0.50;;
57655;SDS011;43482;53.334;6.744;2022-07-23T12:20:21;0.98;;;0.40;;
57655;SDS011;43482;53.334;6.744;2022-07-23T12:22:49;1.77;;;0.20;;
57655;SDS011;43482;53.334;6.744;2022-07-23T12:25:18;0.47;;;0.20;;
57655;SDS011;43482;53.334;6.744;2022-07-23T12:27:45;0.95;;;0.30;;
57655;SDS011;43482;53.334;6.744;2022-07-23T12:30:26;0.38;;;0.28;;
57655;SDS011;43482;53.334;6.744;2022-07-23T12:32:54;0.50;;;0.20;;
57655;SDS011;43482;53.334;6.744;2022-07-23T12:35:22;0.55;;;0.38;;
57655;SDS011;43482;53.334;6.744;2022-07-23T12:37:59;0.40;;;0.28;;
57655;SDS011;43482;53.334;6.744;2022-07-23T12:43:12;1.42;;;0.30;;
57655;SDS011;43482;53.334;6.744;2022-07-23T12:45:46;1.45;;;0.50;;
57655;SDS011;43482;53.334;6.744;2022-07-23T12:50:58;1.05;;;0.28;;
57655;SDS011;43482;53.334;6.744;2022-07-23T12:55:57;0.88;;;0.38;;
57655;SDS011;43482;53.334;6.744;2022-07-23T12:58:25;1.10;;;0.40;;
57655;SDS011;43482;53.334;6.744;2022-07-23T13:03:29;0.53;;;0.40;;
57655;SDS011;43482;53.334;6.744;2022-07-23T13:05:58;0.22;;;0.20;;
57655;SDS011;43482;53.334;6.744;2022-07-23T13:08:24;1.15;;;0.47;;
57655;SDS011;43482;53.334;6.744;2022-07-23T13:10:51;0.55;;;0.22;;
57655;SDS011;43482;53.334;6.744;2022-07-23T13:13:17;1.55;;;0.30;;
57655;SDS011;43482;53.334;6.744;2022-07-23T13:15:45;1.20;;;0.30;;
57655;SDS011;43482;53.334;6.744;2022-07-23T13:18:11;0.20;;;0.13;;
57655;SDS011;43482;53.334;6.744;2022-07-23T13:20:36;2.17;;;0.80;;
57655;SDS011;43482;53.334;6.744;2022-07-23T13:23:04;0.45;;;0.20;;
57655;SDS011;43482;53.334;6.744;2022-07-23T13:25:30;0.93;;;0.30;;
57655;SDS011;43482;53.334;6.744;2022-07-23T13:27:55;1.52;;;0.22;;
57655;SDS011;43482;53.334;6.744;2022-07-23T13:30:21;0.47;;;0.28;;
57655;SDS011;43482;53.334;6.744;2022-07-23T13:32:47;1.27;;;0.52;;
57655;SDS011;43482;53.334;6.744;2022-07-23T13:35:13;0.82;;;0.22;;
57655;SDS011;43482;53.334;6.744;2022-07-23T13:37:38;0.60;;;0.30;;
57655;SDS011;43482;53.334;6.744;2022-07-23T13:40:04;0.30;;;0.20;;
57655;SDS011;43482;53.334;6.744;2022-07-23T13:42:30;0.60;;;0.40;;
57655;SDS011;43482;53.334;6.744;2022-07-23T13:44:55;0.80;;;0.40;;
57655;SDS011;43482;53.334;6.744;2022-07-23T13:47:21;0.70;;;0.30;;
57655;SDS011;43482;53.334;6.744;2022-07-23T13:49:46;0.70;;;0.30;;
57655;SDS011;43482;53.334;6.744;2022-07-23T13:52:12;0.45;;;0.28;;
57655;SDS011;43482;53.334;6.744;2022-07-23T13:54:37;0.57;;;0.20;;
57655;SDS011;43482;53.334;6.744;2022-07-23T13:57:03;0.35;;;0.20;;
57655;SDS011;43482;53.334;6.744;2022-07-23T13:59:28;0.85;;;0.50;;
57655;SDS011;43482;53.334;6.744;2022-07-23T14:01:54;1.42;;;0.40;;
57655;SDS011;43482;53.334;6.744;2022-07-23T14:04:20;1.92;;;0.40;;
57655;SDS011;43482;53.334;6.744;2022-07-23T14:06:46;0.68;;;0.30;;
57655;SDS011;43482;53.334;6.744;2022-07-23T14:09:12;0.35;;;0.25;;
57655;SDS011;43482;53.334;6.744;2022-07-23T14:11:37;0.52;;;0.20;;
57655;SDS011;43482;53.334;6.744;2022-07-23T14:14:04;0.45;;;0.20;;
57655;SDS011;43482;53.334;6.744;2022-07-23T14:16:29;1.92;;;0.40;;
57655;SDS011;43482;53.334;6.744;2022-07-23T14:18:55;0.52;;;0.25;;
57655;SDS011;43482;53.334;6.744;2022-07-23T14:21:20;2.90;;;0.43;;
57655;SDS011;43482;53.334;6.744;2022-07-23T14:23:46;0.88;;;0.40;;
57655;SDS011;43482;53.334;6.744;2022-07-23T14:26:11;0.30;;;0.10;;
57655;SDS011;43482;53.334;6.744;2022-07-23T14:28:37;0.63;;;0.40;;
57655;SDS011;43482;53.334;6.744;2022-07-23T14:31:02;0.55;;;0.22;;
57655;SDS011;43482;53.334;6.744;2022-07-23T14:33:27;0.35;;;0.22;;
57655;SDS011;43482;53.334;6.744;2022-07-23T14:35:53;0.30;;;0.22;;
57655;SDS011;43482;53.334;6.744;2022-07-23T14:38:18;0.40;;;0.20;;
57655;SDS011;43482;53.334;6.744;2022-07-23T14:40:44;0.43;;;0.25;;
57655;SDS011;43482;53.334;6.744;2022-07-23T14:43:09;1.15;;;0.30;;
57655;SDS011;43482;53.334;6.744;2022-07-23T14:45:34;0.60;;;0.20;;
57655;SDS011;43482;53.334;6.744;2022-07-23T14:48:00;0.45;;;0.28;;
57655;SDS011;43482;53.334;6.744;2022-07-23T14:50:27;0.77;;;0.40;;
57655;SDS011;43482;53.334;6.744;2022-07-23T14:52:53;1.52;;;0.50;;
57655;SDS011;43482;53.334;6.744;2022-07-23T14:55:19;1.13;;;0.50;;
57655;SDS011;43482;53.334;6.744;2022-07-23T14:57:44;0.40;;;0.30;;
57655;SDS011;43482;53.334;6.744;2022-07-23T15:00:10;1.05;;;0.20;;
57655;SDS011;43482;53.334;6.744;2022-07-23T15:02:36;2.97;;;0.50;;
57655;SDS011;43482;53.334;6.744;2022-07-23T15:05:01;0.40;;;0.30;;
57655;SDS011;43482;53.334;6.744;2022-07-23T15:07:28;1.20;;;0.32;;
57655;SDS011;43482;53.334;6.744;2022-07-23T15:09:54;0.65;;;0.32;;
57655;SDS011;43482;53.334;6.744;2022-07-23T15:12:20;0.50;;;0.30;;
57655;SDS011;43482;53.334;6.744;2022-07-23T15:14:45;0.32;;;0.20;;
57655;SDS011;43482;53.334;6.744;2022-07-23T15:17:11;0.98;;;0.20;;
57655;SDS011;43482;53.334;6.744;2022-07-23T15:19:36;0.75;;;0.30;;
57655;SDS011;43482;53.334;6.744;2022-07-23T15:22:01;0.50;;;0.30;;
57655;SDS011;43482;53.334;6.744;2022-07-23T15:24:29;0.40;;;0.30;;
57655;SDS011;43482;53.334;6.744;2022-07-23T15:26:54;2.13;;;0.50;;
57655;SDS011;43482;53.334;6.744;2022-07-23T15:29:20;0.50;;;0.20;;
57655;SDS011;43482;53.334;6.744;2022-07-23T15:31:45;0.47;;;0.25;;
57655;SDS011;43482;53.334;6.744;2022-07-23T15:34:11;1.23;;;0.60;;